Terminal Aerodrome Forecast
Issued by NWS

Home | Current Version | Previous Version | Text Only | Print | Product List | Glossary On
Versions: 1 2 3 4 5 6 7 8 9 10 11 12 13 14 15 16 17
000
FTUS42 KMLB 010538
TAFISM
TAF
KISM 010538Z 0106/0206 08004KT P6SM BKN020 OVC025
     FM011000 06005KT 3SM BR OVC005
     FM011400 14005KT P6SM SCT008 BKN020
     FM011800 13008KT P6SM BKN040
      TEMPO 0118/0122 3SM SHRA BKN025
     FM020000 10006KT P6SM SCT030 SCT060 BKN100
      AMD NOT SKED TIL 011200=

USA.gov is the U.S. government's official web portal to all federal, state and local government web resources and services.